Time;durP1;ratioP1;P1;durP2;ratioP2;P2;SDS_P1;SDS_P2;PMS_P1;PMS_P2;Temp;Humidity;BMP_temperature;BMP_pressure;BME280_temperature;BME280_humidity;BME280_pressure;Samples;Min_cycle;Max_cycle;Signal;HPM_P1;HPM_P2
2023/12/09 00:01:24;;;;;;;0.63;0.63;;;;;;;5.84;60.55;101685.56;4949963;28;20413;-85
2023/12/09 00:03:52;;;;;;;1.50;1.40;;;;;;;5.88;60.89;101694.88;4933439;28;20393;-85
2023/12/09 00:06:22;;;;;;;0.60;0.60;;;;;;;5.92;60.89;101692.88;4935313;28;20495;-84
2023/12/09 00:08:48;;;;;;;1.95;0.77;;;;;;;5.94;60.82;101690.94;4935187;29;20943;-83
2023/12/09 00:11:13;;;;;;;0.80;0.80;;;;;;;5.93;60.89;101682.22;4918270;29;20479;-85
2023/12/09 00:13:39;;;;;;;1.50;0.70;;;;;;;6.00;60.70;101682.66;4933024;29;20409;-85
2023/12/09 00:16:05;;;;;;;0.40;0.40;;;;;;;6.09;60.55;101687.22;4933579;29;20493;-85
2023/12/09 00:18:30;;;;;;;0.40;0.40;;;;;;;6.10;60.40;101691.53;4938217;29;20397;-86
2023/12/09 00:20:56;;;;;;;0.60;0.60;;;;;;;6.10;59.94;101691.53;4935046;29;20448;-85
2023/12/09 00:23:22;;;;;;;0.60;0.60;;;;;;;6.10;60.08;101688.03;4935762;29;20482;-84
2023/12/09 00:25:47;;;;;;;0.45;0.45;;;;;;;6.10;60.09;101683.63;4933385;29;20408;-84
2023/12/09 00:28:13;;;;;;;0.38;0.38;;;;;;;6.18;60.23;101682.22;4934501;29;20409;-85
2023/12/09 00:30:39;;;;;;;0.75;0.75;;;;;;;6.20;60.01;101678.50;4950390;29;20881;-84
2023/12/09 00:33:06;;;;;;;0.43;0.43;;;;;;;6.25;59.96;101673.72;4950740;28;20480;-84
2023/12/09 00:35:31;;;;;;;0.70;0.50;;;;;;;6.28;59.96;101678.75;4933158;28;20417;-85
2023/12/09 00:37:57;;;;;;;0.10;0.10;;;;;;;6.43;59.58;101687.25;4932692;28;20407;-85
2023/12/09 00:40:26;;;;;;;0.63;0.63;;;;;;;6.39;59.94;101688.47;4934104;28;20812;-84
2023/12/09 00:42:54;;;;;;;1.10;0.50;;;;;;;6.43;59.47;101684.63;4943357;28;20417;-85
2023/12/09 00:45:21;;;;;;;0.60;0.60;;;;;;;6.47;59.42;101686.06;4954695;28;20409;-87
2023/12/09 00:47:46;;;;;;;0.32;0.32;;;;;;;6.42;59.58;101680.28;4970657;28;20405;-86
2023/12/09 00:50:12;;;;;;;1.20;0.70;;;;;;;6.31;59.55;101680.31;4953463;28;20417;-85
2023/12/09 00:52:37;;;;;;;0.80;0.80;;;;;;;6.41;59.74;101681.28;4967416;28;20413;-88
2023/12/09 00:55:03;;;;;;;1.17;1.10;;;;;;;6.39;59.25;101672.66;4936120;28;20432;-85
2023/12/09 00:57:29;;;;;;;2.30;0.95;;;;;;;6.35;59.52;101671.19;4951125;28;20381;-87
2023/12/09 00:59:54;;;;;;;0.50;0.50;;;;;;;6.45;59.52;101676.59;4932302;28;20445;-87
2023/12/09 01:02:20;;;;;;;0.40;0.40;;;;;;;6.46;59.14;101668.59;4931534;28;20480;-87
2023/12/09 01:04:46;;;;;;;1.20;0.70;;;;;;;6.53;59.06;101670.72;4931679;28;20500;-86
2023/12/09 01:07:11;;;;;;;0.30;0.30;;;;;;;6.59;59.08;101668.47;4932715;28;20853;-86
2023/12/09 01:09:37;;;;;;;0.50;0.50;;;;;;;6.61;59.21;101670.94;4933173;28;20421;-84
2023/12/09 01:12:03;;;;;;;0.50;0.50;;;;;;;6.58;59.21;101664.13;4932221;28;20896;-81
2023/12/09 01:14:28;;;;;;;0.70;0.70;;;;;;;6.53;59.04;101666.28;4931979;28;20408;-85
2023/12/09 01:16:54;;;;;;;0.45;0.45;;;;;;;6.49;59.31;101660.44;4950466;28;20480;-89
2023/12/09 01:19:20;;;;;;;0.80;0.50;;;;;;;6.50;59.17;101653.38;4932524;28;20389;-85
2023/12/09 01:21:45;;;;;;;0.70;0.63;;;;;;;6.55;59.06;101655.63;4931463;28;20766;-85
2023/12/09 01:24:11;;;;;;;0.30;0.30;;;;;;;6.63;58.89;101650.63;4949171;28;20425;-85
2023/12/09 01:26:37;;;;;;;0.60;0.50;;;;;;;6.59;58.90;101652.66;4933999;29;20393;-84
2023/12/09 01:29:03;;;;;;;0.70;0.70;;;;;;;6.53;59.21;101649.66;4933067;28;20401;-82
2023/12/09 01:31:30;;;;;;;0.67;0.67;;;;;;;6.44;58.83;101653.84;4958070;28;20443;-84
2023/12/09 01:33:56;;;;;;;0.50;0.40;;;;;;;6.48;59.27;101671.06;4933258;28;20796;-85
2023/12/09 01:36:21;;;;;;;0.70;0.70;;;;;;;6.23;59.10;101656.34;4933785;29;20393;-84
2023/12/09 01:38:47;;;;;;;0.80;0.80;;;;;;;6.10;59.71;101657.31;4933666;29;20959;-87
2023/12/09 01:41:12;;;;;;;0.70;0.70;;;;;;;6.06;60.01;101655.84;4933336;28;20417;-85
2023/12/09 01:43:38;;;;;;;0.93;0.93;;;;;;;6.04;59.92;101647.22;4932716;28;20392;-86
2023/12/09 01:46:10;;;;;;;0.80;0.80;;;;;;;6.06;59.67;101645.31;4933581;29;20425;-85
2023/12/09 01:48:37;;;;;;;0.73;0.73;;;;;;;5.96;59.85;101632.97;4932864;29;20389;-85
2023/12/09 01:51:04;;;;;;;0.32;0.30;;;;;;;5.94;59.81;101635.69;4947221;28;20405;-87
2023/12/09 01:53:30;;;;;;;1.70;1.60;;;;;;;5.91;60.11;101636.78;4940768;29;20401;-85
2023/12/09 01:55:59;;;;;;;1.00;1.00;;;;;;;5.97;59.97;101635.50;4935981;28;20409;-85
2023/12/09 01:58:26;;;;;;;0.70;0.70;;;;;;;5.94;60.06;101638.31;4936015;28;20393;-85
2023/12/09 02:00:52;;;;;;;0.37;0.37;;;;;;;5.86;60.41;101644.16;4904571;28;20989;-84
2023/12/09 02:03:18;;;;;;;0.32;0.32;;;;;;;5.79;60.12;101631.59;4937773;29;20463;-86
2023/12/09 02:05:45;;;;;;;0.40;0.40;;;;;;;5.90;60.06;101632.44;4936230;28;20923;-85
2023/12/09 02:08:11;;;;;;;0.60;0.60;;;;;;;5.83;60.38;101635.69;4935717;28;20397;-84
2023/12/09 02:10:38;;;;;;;2.65;0.85;;;;;;;5.65;60.59;101628.22;4953150;28;20393;-84
2023/12/09 02:13:19;;;;;;;0.52;0.52;;;;;;;5.67;60.59;101630.72;4935790;28;20827;-85
2023/12/09 02:16:14;;;;;;;0.57;0.57;;;;;;;5.61;61.02;101621.50;4935565;28;20496;-85
2023/12/09 02:18:43;;;;;;;0.90;0.90;;;;;;;5.69;60.69;101632.31;4935795;28;20385;-85
2023/12/09 02:21:08;;;;;;;0.80;0.80;;;;;;;5.76;60.61;101632.66;4935703;28;20538;-85
2023/12/09 02:23:36;;;;;;;0.20;0.20;;;;;;;5.79;60.42;101626.34;4952925;28;20404;-85
2023/12/09 02:26:07;;;;;;;0.47;0.47;;;;;;;5.70;60.65;101626.06;4935966;28;20412;-85
2023/12/09 02:28:40;;;;;;;1.10;1.02;;;;;;;5.66;60.68;101632.53;4935696;28;20409;-85
2023/12/09 02:31:15;;;;;;;1.70;1.40;;;;;;;5.74;60.82;101626.69;4935259;28;20429;-84
2023/12/09 02:33:43;;;;;;;0.68;0.68;;;;;;;5.78;60.77;101632.53;4934606;28;20432;-84
2023/12/09 02:36:17;;;;;;;0.60;0.60;;;;;;;5.80;60.19;101628.00;4919307;29;20407;-84
2023/12/09 02:38:43;;;;;;;0.60;0.60;;;;;;;5.76;60.40;101632.66;4934871;29;20429;-85
2023/12/09 02:41:10;;;;;;;1.20;1.10;;;;;;;5.71;60.43;101632.19;4919598;29;20511;-85
2023/12/09 02:43:37;;;;;;;0.80;0.80;;;;;;;5.78;60.75;101624.66;4951668;29;20445;-86
2023/12/09 02:46:02;;;;;;;0.50;0.50;;;;;;;5.80;60.21;101631.50;4934963;28;20421;-85
2023/12/09 02:48:28;;;;;;;1.00;1.00;;;;;;;5.82;60.49;101631.38;4935467;28;20409;-87
2023/12/09 02:50:54;;;;;;;1.90;1.30;;;;;;;5.79;60.15;101629.81;4934360;28;20438;-87
2023/12/09 02:53:19;;;;;;;0.38;0.38;;;;;;;5.79;60.50;101632.44;4951954;28;20714;-86
2023/12/09 02:55:45;;;;;;;1.00;0.80;;;;;;;5.81;60.38;101629.69;4934666;28;20431;-86
2023/12/09 02:58:12;;;;;;;1.50;1.10;;;;;;;5.80;60.46;101622.75;4952563;28;20789;-89
2023/12/09 03:00:38;;;;;;;0.60;0.40;;;;;;;5.91;60.51;101630.69;4952206;28;20888;-86
2023/12/09 03:03:07;;;;;;;0.65;0.60;;;;;;;5.96;60.17;101631.19;4934614;29;20430;-86
2023/12/09 03:05:32;;;;;;;0.40;0.40;;;;;;;5.98;59.99;101634.56;4934614;28;20404;-87
2023/12/09 03:07:58;;;;;;;0.70;0.70;;;;;;;5.88;60.01;101637.00;4934745;28;20394;-86
2023/12/09 03:10:24;;;;;;;0.95;0.85;;;;;;;5.86;60.34;101644.16;4952314;29;20400;-86
2023/12/09 03:12:50;;;;;;;0.32;0.32;;;;;;;5.92;60.29;101637.59;4936619;29;20393;-87
2023/12/09 03:15:15;;;;;;;0.90;0.90;;;;;;;5.85;59.89;101628.50;4934225;29;20520;-88
2023/12/09 03:17:42;;;;;;;1.17;1.17;;;;;;;5.94;60.36;101630.44;4952252;28;20401;-88
2023/12/09 03:20:09;;;;;;;0.35;0.35;;;;;;;6.03;59.85;101640.31;4952373;28;20405;-87
2023/12/09 03:22:35;;;;;;;0.40;0.40;;;;;;;6.06;59.88;101634.78;4934933;28;20421;-87
2023/12/09 03:25:00;;;;;;;1.80;0.50;;;;;;;6.10;59.75;101645.91;4918634;28;20447;-86
2023/12/09 03:27:26;;;;;;;0.60;0.60;;;;;;;6.07;59.82;101639.09;4934836;28;20467;-87
2023/12/09 03:29:52;;;;;;;0.30;0.30;;;;;;;6.07;59.80;101646.19;4934939;29;20520;-86
2023/12/09 03:32:17;;;;;;;0.20;0.20;;;;;;;6.00;59.90;101644.97;4935954;29;20412;-86
2023/12/09 03:34:44;;;;;;;1.00;0.87;;;;;;;6.02;60.12;101643.06;4943972;29;20409;-87
2023/12/09 03:37:10;;;;;;;0.30;0.30;;;;;;;6.11;59.48;101656.34;4962856;28;21007;-85
2023/12/09 03:39:36;;;;;;;1.00;0.90;;;;;;;6.14;59.47;101655.28;4933310;28;20488;-86
2023/12/09 03:42:02;;;;;;;0.60;0.60;;;;;;;6.10;59.80;101646.78;4932963;28;20389;-87
2023/12/09 03:44:29;;;;;;;1.30;1.00;;;;;;;6.15;59.68;101654.31;4934565;29;20429;-88
2023/12/09 03:46:54;;;;;;;0.80;0.65;;;;;;;6.23;59.52;101658.97;4934214;28;20494;-86
2023/12/09 03:49:20;;;;;;;0.73;0.73;;;;;;;6.06;59.62;101655.00;4933584;28;20874;-86
2023/12/09 03:51:46;;;;;;;1.33;1.23;;;;;;;6.13;59.40;101662.31;4958664;29;20452;-88
2023/12/09 03:54:12;;;;;;;0.25;0.25;;;;;;;6.18;59.67;101650.63;4949476;29;20459;-90
2023/12/09 03:56:37;;;;;;;2.40;0.95;;;;;;;6.23;59.22;101665.09;4953882;28;20445;-88
2023/12/09 03:59:03;;;;;;;0.40;0.40;;;;;;;6.24;59.48;101653.59;4935720;29;20456;-86
2023/12/09 04:01:29;;;;;;;0.50;0.50;;;;;;;6.23;59.28;101657.19;4936752;28;20393;-86
2023/12/09 04:03:56;;;;;;;0.40;0.40;;;;;;;6.10;59.69;101659.94;4934950;29;20392;-86
2023/12/09 04:06:22;;;;;;;1.67;1.50;;;;;;;6.04;59.60;101662.19;4934665;29;20409;-87
2023/12/09 04:08:47;;;;;;;1.27;1.05;;;;;;;5.92;59.96;101653.41;4934956;28;20449;-85
2023/12/09 04:11:14;;;;;;;0.80;0.80;;;;;;;5.96;59.94;101665.41;4933746;28;20425;-86
2023/12/09 04:13:42;;;;;;;1.10;1.00;;;;;;;5.97;59.71;101664.44;4933453;29;20528;-87
2023/12/09 04:16:08;;;;;;;0.90;0.80;;;;;;;6.05;59.85;101671.75;4935498;29;20472;-87
2023/12/09 04:18:36;;;;;;;0.27;0.27;;;;;;;6.03;60.02;101673.66;4933909;29;20480;-86
2023/12/09 04:21:01;;;;;;;0.52;0.50;;;;;;;5.96;60.13;101669.81;4950937;29;20386;-87
2023/12/09 04:23:27;;;;;;;0.70;0.70;;;;;;;6.00;60.26;101669.47;4933049;29;20468;-85
2023/12/09 04:25:53;;;;;;;0.40;0.40;;;;;;;6.02;59.77;101670.19;4933250;28;20977;-87
2023/12/09 04:28:18;;;;;;;0.30;0.30;;;;;;;5.99;60.04;101673.06;4934067;28;20440;-86
2023/12/09 04:30:44;;;;;;;0.50;0.50;;;;;;;5.93;60.03;101670.88;4933624;28;20575;-86
2023/12/09 04:33:10;;;;;;;0.68;0.68;;;;;;;6.04;60.42;101676.19;4934355;28;20813;-86
2023/12/09 04:35:36;;;;;;;0.68;0.65;;;;;;;6.10;59.92;101661.72;4932174;28;20413;-86
2023/12/09 04:38:01;;;;;;;1.90;0.60;;;;;;;6.19;59.74;101673.34;4932391;28;21063;-87
2023/12/09 04:40:27;;;;;;;1.20;1.10;;;;;;;6.22;59.38;101665.22;4931541;28;20397;-86
2023/12/09 04:42:52;;;;;;;0.40;0.40;;;;;;;6.27;59.42;101674.44;4932162;28;20420;-85
2023/12/09 04:45:18;;;;;;;0.53;0.53;;;;;;;6.30;59.25;101666.31;4932181;28;20393;-87
2023/12/09 04:48:32;;;;;;;0.52;0.52;;;;;;;6.12;59.53;101665.06;4933315;29;20444;-88
2023/12/09 04:50:58;;;;;;;0.60;0.60;;;;;;;6.05;59.59;101669.13;4838466;29;21005;-85
2023/12/09 04:53:23;;;;;;;0.87;0.80;;;;;;;6.11;59.97;101676.56;4838394;29;20492;-85
2023/12/09 04:55:50;;;;;;;0.20;0.20;;;;;;;6.21;59.69;101674.06;4904514;28;20425;-86
2023/12/09 04:58:15;;;;;;;0.95;0.95;;;;;;;6.31;59.13;101677.66;4933159;28;20484;-86
2023/12/09 05:00:41;;;;;;;0.50;0.50;;;;;;;6.40;59.20;101684.03;4933046;28;20413;-86
2023/12/09 05:03:10;;;;;;;1.40;1.30;;;;;;;6.30;59.37;101673.34;4931978;28;20814;-85
2023/12/09 05:05:35;;;;;;;0.40;0.40;;;;;;;6.27;59.45;101678.88;4933212;29;20397;-86
2023/12/09 05:08:01;;;;;;;0.43;0.43;;;;;;;6.23;59.46;101675.63;4932259;28;20407;-86
2023/12/09 05:10:27;;;;;;;0.60;0.60;;;;;;;6.26;59.03;101680.63;4932146;28;20840;-88
2023/12/09 05:12:52;;;;;;;0.30;0.30;;;;;;;6.25;59.24;101683.41;4932663;28;20526;-87
2023/12/09 05:15:18;;;;;;;1.00;1.00;;;;;;;6.25;59.35;101689.50;4933341;28;20468;-84
2023/12/09 05:17:44;;;;;;;0.90;0.90;;;;;;;6.25;59.35;101689.50;4936170;28;20393;-86
2023/12/09 05:20:10;;;;;;;0.25;0.25;;;;;;;6.32;59.36;101692.53;4937682;28;21034;-87
2023/12/09 05:22:35;;;;;;;1.50;0.90;;;;;;;6.31;59.27;101685.56;4938419;28;20392;-86
2023/12/09 05:25:02;;;;;;;0.77;0.77;;;;;;;6.31;59.06;101693.47;4954779;28;20405;-85
2023/12/09 05:27:28;;;;;;;0.80;0.50;;;;;;;6.35;58.95;101691.44;4936823;29;20593;-86
2023/12/09 05:29:53;;;;;;;0.40;0.40;;;;;;;6.34;59.33;101689.75;4936218;29;20445;-87
2023/12/09 05:32:19;;;;;;;0.50;0.50;;;;;;;6.38;59.14;101694.66;4952940;29;20421;-87
2023/12/09 05:34:44;;;;;;;0.50;0.50;;;;;;;6.38;58.74;101683.31;4936115;29;20427;-87
2023/12/09 05:37:10;;;;;;;1.20;0.30;;;;;;;6.39;58.89;101690.22;4939980;29;20425;-87
2023/12/09 05:39:36;;;;;;;0.40;0.40;;;;;;;6.31;59.14;101686.41;4953467;29;20464;-91
2023/12/09 05:42:01;;;;;;;0.20;0.20;;;;;;;6.35;59.24;101701.97;4946657;28;20464;-89
2023/12/09 05:44:27;;;;;;;0.20;0.20;;;;;;;6.41;59.01;101701.47;4938793;28;21221;-90
2023/12/09 05:46:53;;;;;;;0.60;0.60;;;;;;;6.46;59.02;101708.09;4939204;28;20480;-90
2023/12/09 05:49:19;;;;;;;0.73;0.73;;;;;;;6.48;58.80;101710.59;4956835;28;20398;-86
2023/12/09 05:51:45;;;;;;;0.40;0.40;;;;;;;6.42;59.03;101704.00;4940373;28;20464;-89
2023/12/09 05:54:10;;;;;;;0.63;0.50;;;;;;;6.49;58.84;101707.84;4940544;28;20934;-89
2023/12/09 05:56:36;;;;;;;0.30;0.30;;;;;;;6.46;58.98;101694.94;4949290;28;20397;-89
2023/12/09 05:59:04;;;;;;;0.27;0.27;;;;;;;6.45;58.67;101695.88;4956980;28;20401;-88
2023/12/09 06:01:30;;;;;;;0.30;0.30;;;;;;;6.52;58.94;101706.78;4950183;28;20416;-89
2023/12/09 06:03:56;;;;;;;0.30;0.30;;;;;;;6.59;58.85;101712.38;4938769;28;20753;-89
2023/12/09 06:06:22;;;;;;;1.07;0.63;;;;;;;6.49;58.87;101710.47;4937771;28;20824;-87
2023/12/09 06:08:48;;;;;;;1.83;0.47;;;;;;;6.38;58.91;101704.38;4937954;28;20404;-88
2023/12/09 06:11:14;;;;;;;0.20;0.20;;;;;;;6.38;59.18;101710.47;4937080;28;20404;-87
2023/12/09 06:13:40;;;;;;;1.00;0.90;;;;;;;6.36;59.21;101712.38;4937553;28;20393;-87
2023/12/09 06:16:06;;;;;;;0.22;0.22;;;;;;;6.36;59.04;101714.19;4937246;28;20399;-86
2023/12/09 06:18:31;;;;;;;0.57;0.57;;;;;;;6.34;59.26;101718.72;4936986;28;20762;-86
2023/12/09 06:20:57;;;;;;;1.08;1.02;;;;;;;6.23;59.17;101712.50;4937317;28;20401;-86
2023/12/09 06:23:23;;;;;;;0.20;0.20;;;;;;;6.16;59.62;101711.28;4936809;28;20401;-85
2023/12/09 06:25:52;;;;;;;0.40;0.40;;;;;;;6.12;59.56;101723.84;4937419;28;20788;-87
2023/12/09 06:28:18;;;;;;;0.95;0.95;;;;;;;6.12;59.19;101721.19;4935761;28;20389;-86
2023/12/09 06:30:43;;;;;;;0.20;0.20;;;;;;;6.16;59.40;101731.47;4936086;28;20398;-87
2023/12/09 06:33:09;;;;;;;0.20;0.20;;;;;;;6.13;59.26;101727.28;4935292;28;20825;-85
2023/12/09 06:35:34;;;;;;;0.20;0.20;;;;;;;6.15;59.29;101725.38;4934020;28;20421;-86
2023/12/09 06:38:00;;;;;;;0.30;0.30;;;;;;;6.22;58.97;101720.50;4934964;28;20913;-86
2023/12/09 06:40:26;;;;;;;0.70;0.70;;;;;;;6.11;58.63;101724.78;4951992;28;20398;-85
2023/12/09 06:42:51;;;;;;;0.60;0.60;;;;;;;6.07;58.88;101730.41;4970789;28;20391;-86
2023/12/09 06:45:20;;;;;;;1.23;1.13;;;;;;;6.09;59.17;101724.06;4955268;28;20392;-86
2023/12/09 06:47:45;;;;;;;1.10;0.98;;;;;;;6.21;58.79;101732.84;4954140;28;20406;-86
2023/12/09 06:50:14;;;;;;;1.30;1.20;;;;;;;6.22;58.45;101737.13;4954153;28;20401;-88
2023/12/09 06:52:40;;;;;;;0.80;0.80;;;;;;;6.13;58.92;101740.47;4963748;28;20403;-90
2023/12/09 06:55:06;;;;;;;0.47;0.47;;;;;;;6.07;58.80;101735.66;4958076;28;20470;-89
2023/12/09 06:57:32;;;;;;;0.55;0.55;;;;;;;6.05;59.23;101732.28;4956589;28;20403;-88
2023/12/09 06:59:57;;;;;;;0.80;0.80;;;;;;;6.07;59.24;101744.41;4953764;28;20419;-86
2023/12/09 07:02:23;;;;;;;0.60;0.60;;;;;;;6.12;58.66;101746.66;4954273;28;20781;-87
2023/12/09 07:04:49;;;;;;;1.50;1.40;;;;;;;6.16;58.88;101745.50;4954548;28;20388;-89
2023/12/09 07:07:14;;;;;;;0.57;0.57;;;;;;;6.09;58.72;101762.72;4955201;28;20387;-87
2023/12/09 07:09:40;;;;;;;0.70;0.70;;;;;;;6.14;58.81;101757.94;4956532;28;20399;-89
2023/12/09 07:12:06;;;;;;;0.60;0.60;;;;;;;6.09;58.92;101760.09;4957414;28;20732;-92
2023/12/09 07:14:34;;;;;;;0.30;0.30;;;;;;;6.00;59.06;101756.34;4955479;28;20430;-84
2023/12/09 07:17:00;;;;;;;0.60;0.50;;;;;;;6.01;58.83;101772.97;4954411;28;20399;-89
2023/12/09 07:19:25;;;;;;;0.30;0.30;;;;;;;5.92;58.70;101761.28;4956107;28;20391;-88
2023/12/09 07:21:52;;;;;;;0.50;0.50;;;;;;;5.96;58.71;101767.19;4954268;28;20403;-88
2023/12/09 07:24:18;;;;;;;0.50;0.50;;;;;;;6.04;58.33;101770.09;4951601;28;20442;-88
2023/12/09 07:26:44;;;;;;;0.50;0.50;;;;;;;6.06;58.38;101778.72;4936088;28;20815;-83
2023/12/09 07:29:10;;;;;;;0.50;0.50;;;;;;;6.09;58.69;101778.50;4951670;28;20938;-83
2023/12/09 07:31:35;;;;;;;0.22;0.22;;;;;;;6.20;58.49;101781.16;4931663;28;20395;-85
2023/12/09 07:34:04;;;;;;;0.50;0.50;;;;;;;6.31;58.21;101777.72;4952191;28;20442;-84
2023/12/09 07:36:29;;;;;;;0.50;0.50;;;;;;;6.35;58.23;101776.53;4953976;28;20401;-85
2023/12/09 07:38:55;;;;;;;1.17;1.08;;;;;;;6.27;58.52;101781.56;4951043;28;20401;-84
2023/12/09 07:41:20;;;;;;;0.60;0.60;;;;;;;6.33;58.63;101781.09;4944148;28;20397;-85
2023/12/09 07:43:46;;;;;;;0.50;0.50;;;;;;;6.22;58.72;101778.44;4957529;28;20410;-83
2023/12/09 07:46:12;;;;;;;1.77;0.93;;;;;;;6.21;59.03;101787.25;4956587;28;20883;-84
2023/12/09 07:48:39;;;;;;;0.38;0.38;;;;;;;6.20;59.29;101785.59;4941115;28;20395;-86
2023/12/09 07:51:10;;;;;;;1.20;0.60;;;;;;;6.01;59.13;101773.78;4955903;28;20427;-86
2023/12/09 07:53:43;;;;;;;0.70;0.70;;;;;;;6.05;59.20;101779.66;4945212;29;20405;-87
2023/12/09 07:56:11;;;;;;;0.73;0.73;;;;;;;5.94;59.34;101778.66;4938613;29;20397;-92
2023/12/09 07:58:37;;;;;;;0.68;0.68;;;;;;;6.01;58.79;101778.22;4942235;28;20447;-90
2023/12/09 08:01:03;;;;;;;0.67;0.67;;;;;;;6.20;58.84;101783.81;4931382;29;20410;-87
2023/12/09 08:03:31;;;;;;;0.30;0.30;;;;;;;6.21;58.20;101785.50;4931749;29;20465;-85
2023/12/09 08:05:56;;;;;;;0.68;0.68;;;;;;;6.14;58.22;101792.16;4919457;29;20438;-85
2023/12/09 08:08:22;;;;;;;0.70;0.70;;;;;;;6.02;57.87;101787.81;4934696;29;20406;-87
2023/12/09 08:10:47;;;;;;;1.10;1.00;;;;;;;6.09;58.34;101791.66;4920157;29;20524;-89
2023/12/09 08:13:13;;;;;;;0.68;0.63;;;;;;;5.93;58.02;101792.75;4918899;29;20411;-85
2023/12/09 08:15:40;;;;;;;0.23;0.23;;;;;;;5.90;58.12;101794.78;4943946;29;20413;-86
2023/12/09 08:18:06;;;;;;;0.60;0.60;;;;;;;5.96;58.04;101799.63;4937700;29;20399;-86
2023/12/09 08:20:34;;;;;;;1.00;1.00;;;;;;;6.02;58.03;101796.53;4934753;29;20832;-86
2023/12/09 08:23:01;;;;;;;1.40;1.25;;;;;;;6.06;58.09;101813.78;4915208;29;20779;-86
2023/12/09 08:25:27;;;;;;;0.43;0.43;;;;;;;6.12;58.40;101805.44;4918401;29;20918;-86
2023/12/09 08:27:56;;;;;;;0.30;0.30;;;;;;;6.01;58.67;101809.81;4905733;29;22677;-87
2023/12/09 08:30:22;;;;;;;0.30;0.30;;;;;;;6.03;58.66;101806.13;4933916;29;20427;-86
2023/12/09 08:32:48;;;;;;;0.17;0.17;;;;;;;6.25;58.68;101809.81;4935861;29;20427;-87
2023/12/09 08:35:13;;;;;;;0.80;0.80;;;;;;;6.27;58.48;101807.88;4929351;29;20443;-87
2023/12/09 08:37:40;;;;;;;0.40;0.40;;;;;;;6.37;57.98;101818.56;4932071;29;20922;-86
2023/12/09 08:40:12;;;;;;;0.75;0.68;;;;;;;6.21;58.16;101814.47;4931659;29;20416;-86
2023/12/09 08:42:52;;;;;;;0.43;0.30;;;;;;;6.06;58.63;101811.16;4936337;29;20396;-86
2023/12/09 08:45:17;;;;;;;0.50;0.50;;;;;;;6.16;58.86;101816.59;4937151;29;20392;-84
2023/12/09 08:47:43;;;;;;;0.53;0.53;;;;;;;6.23;58.54;101809.91;4936543;29;20408;-86
2023/12/09 08:50:09;;;;;;;0.37;0.37;;;;;;;6.28;58.43;101810.41;4935219;29;20400;-87
2023/12/09 08:52:35;;;;;;;0.47;0.47;;;;;;;5.96;58.58;101802.28;4935910;29;20401;-85
2023/12/09 08:55:02;;;;;;;0.70;0.60;;;;;;;6.07;58.73;101817.28;4952324;29;20420;-87
2023/12/09 08:57:28;;;;;;;0.50;0.47;;;;;;;6.18;58.63;101805.94;4920643;28;20412;-86
2023/12/09 08:59:54;;;;;;;0.50;0.50;;;;;;;6.12;58.66;101817.75;4940292;29;20420;-87
2023/12/09 09:02:21;;;;;;;0.80;0.70;;;;;;;6.06;58.43;101807.69;4956785;29;20804;-88
2023/12/09 09:04:48;;;;;;;0.60;0.60;;;;;;;6.20;58.43;101802.22;4923647;29;20425;-88
2023/12/09 09:07:15;;;;;;;0.70;0.70;;;;;;;6.14;58.51;101800.06;4939619;29;20808;-84
2023/12/09 09:09:43;;;;;;;0.38;0.38;;;;;;;6.20;58.10;101806.66;4933497;29;20395;-86
2023/12/09 09:12:09;;;;;;;0.90;0.80;;;;;;;6.07;58.19;101797.03;4932919;29;20472;-86
2023/12/09 09:14:36;;;;;;;1.50;1.40;;;;;;;6.17;58.15;101802.44;4932956;29;20502;-83
2023/12/09 09:17:04;;;;;;;1.98;1.77;;;;;;;6.18;58.04;101805.94;4924539;29;20408;-84
2023/12/09 09:19:34;;;;;;;0.50;0.50;;;;;;;6.41;59.01;101804.19;4932752;29;20391;-86
2023/12/09 09:22:00;;;;;;;0.40;0.40;;;;;;;6.54;58.87;101797.06;4947944;28;20462;-86
2023/12/09 09:24:26;;;;;;;0.43;0.43;;;;;;;6.64;57.93;101807.72;4949099;29;20396;-88
2023/12/09 09:26:51;;;;;;;0.50;0.50;;;;;;;6.36;58.10;101804.56;4945353;28;20391;-85
2023/12/09 09:29:17;;;;;;;0.80;0.33;;;;;;;6.39;57.86;101801.69;4962569;28;20998;-84
2023/12/09 09:31:50;;;;;;;1.65;1.35;;;;;;;6.40;57.45;101799.91;4960261;28;20921;-85
2023/12/09 09:34:19;;;;;;;1.60;1.50;;;;;;;6.45;57.65;101785.44;4975708;28;20422;-87
2023/12/09 09:36:45;;;;;;;0.52;0.52;;;;;;;6.46;57.41;101787.13;4978847;28;20427;-88
2023/12/09 09:39:12;;;;;;;0.30;0.30;;;;;;;6.52;57.54;101785.81;4959618;28;20395;-89
2023/12/09 09:42:08;;;;;;;1.20;1.20;;;;;;;6.45;57.34;101787.22;4962817;28;20933;-86
2023/12/09 09:45:30;;;;;;;3.25;3.05;;;;;;;6.46;57.17;101783.63;4992263;28;20403;-90
2023/12/09 09:47:56;;;;;;;0.57;0.57;;;;;;;6.75;57.10;101789.28;4945050;29;20421;-90
2023/12/09 09:50:26;;;;;;;0.40;0.40;;;;;;;6.80;56.82;101783.66;4943933;29;20464;-87
2023/12/09 09:52:59;;;;;;;0.70;0.70;;;;;;;6.49;57.12;101780.75;4934776;29;20996;-90
2023/12/09 09:55:32;;;;;;;0.63;0.63;;;;;;;6.47;57.28;101780.03;4954987;29;20413;-92
2023/12/09 09:57:57;;;;;;;1.00;1.00;;;;;;;6.51;57.15;101773.56;4955619;29;20401;-90
2023/12/09 10:00:28;;;;;;;1.03;0.93;;;;;;;6.50;57.20;101767.47;4973594;28;20422;-90
2023/12/09 10:02:59;;;;;;;1.00;0.50;;;;;;;6.49;57.13;101770.22;4983872;28;20419;-91
2023/12/09 10:05:27;;;;;;;1.05;0.98;;;;;;;6.52;57.07;101775.28;4982376;28;20404;-93
2023/12/09 10:07:55;;;;;;;1.15;1.05;;;;;;;6.23;57.28;101765.16;4960731;28;20392;-91
2023/12/09 10:10:24;;;;;;;1.25;0.90;;;;;;;6.48;56.78;101758.84;4972550;28;20407;-91
2023/12/09 10:12:50;;;;;;;0.50;0.50;;;;;;;6.43;56.92;101754.91;4971714;28;20422;-92
2023/12/09 10:15:19;;;;;;;1.30;1.20;;;;;;;6.46;56.97;101752.00;4963198;28;20403;-92
2023/12/09 10:17:44;;;;;;;0.40;0.40;;;;;;;6.57;56.66;101757.31;4963121;28;20419;-93
2023/12/09 10:20:10;;;;;;;1.00;0.50;;;;;;;6.62;56.71;101743.78;4962707;28;20395;-93
2023/12/09 10:22:41;;;;;;;0.30;0.30;;;;;;;6.76;56.67;101742.72;4981614;28;20380;-92
2023/12/09 10:25:07;;;;;;;1.20;1.10;;;;;;;6.66;56.27;101748.69;4964453;28;20391;-93
2023/12/09 10:27:33;;;;;;;0.40;0.40;;;;;;;6.75;56.71;101736.56;4964523;28;20383;-92
2023/12/09 10:30:02;;;;;;;0.32;0.32;;;;;;;6.69;56.26;101734.44;4963780;28;20922;-93
2023/12/09 10:32:33;;;;;;;0.43;0.43;;;;;;;6.56;56.79;101739.81;4964033;28;20391;-92
2023/12/09 10:35:03;;;;;;;0.50;0.50;;;;;;;6.51;56.89;101737.53;4964300;28;20470;-92
2023/12/09 10:37:29;;;;;;;1.30;1.20;;;;;;;6.53;56.59;101737.41;4964037;28;20395;-93
2023/12/09 10:39:55;;;;;;;0.30;0.30;;;;;;;6.59;56.85;101734.31;4965734;28;20413;-92
2023/12/09 10:42:23;;;;;;;0.90;0.90;;;;;;;6.49;56.69;101726.28;4968114;28;20393;-93
2023/12/09 10:44:49;;;;;;;1.30;1.30;;;;;;;6.46;57.31;101725.66;4954399;28;20399;-91
2023/12/09 10:47:19;;;;;;;2.27;1.07;;;;;;;6.59;56.83;101736.97;4968044;28;20391;-91
2023/12/09 10:49:46;;;;;;;0.60;0.60;;;;;;;6.60;57.07;101720.19;4985637;28;20379;-91
2023/12/09 10:52:19;;;;;;;0.85;0.85;;;;;;;6.45;57.18;101738.00;4971791;28;20419;-92
2023/12/09 10:54:48;;;;;;;1.15;1.05;;;;;;;6.59;57.34;101730.84;4974064;28;20470;-93
2023/12/09 10:57:15;;;;;;;0.35;0.35;;;;;;;6.59;56.80;101726.41;4970881;28;20410;-93
2023/12/09 10:59:42;;;;;;;1.10;0.70;;;;;;;6.59;57.02;101715.88;4970068;28;20412;-93
2023/12/09 11:02:11;;;;;;;1.00;0.70;;;;;;;6.73;56.92;101712.16;4969124;28;20403;-93
2023/12/09 11:04:50;;;;;;;0.77;0.70;;;;;;;6.54;56.98;101710.13;4967034;28;20395;-94
2023/12/09 11:07:16;;;;;;;0.98;0.98;;;;;;;6.49;57.21;101721.00;4965885;28;20390;-92
2023/12/09 11:09:46;;;;;;;1.13;1.13;;;;;;;6.37;57.21;101700.88;4951128;28;20415;-92
2023/12/09 11:12:27;;;;;;;0.73;0.73;;;;;;;6.28;57.69;101691.06;4964962;28;20384;-92
2023/12/09 11:14:55;;;;;;;0.70;0.70;;;;;;;6.58;57.27;101693.13;4963101;28;20412;-93
2023/12/09 11:17:38;;;;;;;1.17;1.08;;;;;;;6.51;57.19;101697.19;4965257;28;20406;-92
2023/12/09 11:20:16;;;;;;;0.50;0.50;;;;;;;6.53;57.41;101695.28;4963205;28;20533;-92
2023/12/09 11:22:43;;;;;;;1.00;0.98;;;;;;;6.54;57.46;101688.22;4947733;28;20396;-92
2023/12/09 11:25:18;;;;;;;0.80;0.80;;;;;;;6.72;57.00;101684.13;4962207;28;20388;-91
2023/12/09 11:27:54;;;;;;;0.40;0.40;;;;;;;6.70;57.31;101680.78;4961514;28;20384;-93
2023/12/09 11:30:34;;;;;;;0.40;0.40;;;;;;;6.78;56.86;101677.53;4960684;28;20450;-93
2023/12/09 11:33:04;;;;;;;0.80;0.80;;;;;;;6.82;56.98;101673.69;4946878;28;20399;-92
2023/12/09 11:35:34;;;;;;;0.73;0.73;;;;;;;6.83;56.81;101667.47;4961332;28;20406;-91